Aviation Digital Data Service (ADDS)

Output produced by METARs form (0453 UTC 24 July 2016)
found at http://www.aviationweather.gov/adds/metars/
 
KLNS 240353Z AUTO 00000KT 8SM FEW100 21/21 A2994 RMK AO2 SLP134 T02110206
KLNS 232335Z 2400/2424 22012G20KT P6SM SKC 
     FM240200 VRB03KT P6SM SKC 
     FM241500 24005KT P6SM SKC